Decoded Metar for LFLY (LYON BRON in FRANCE) (IATA:LYN) | Meteo·Mobile Aviation Weather
aviador You're here:

LFLY Decoded Metar

LYON BRON in FRANCE
Report Time2018-10-20 16:30:00
UTC Time2018-10-20 17:05:22
Flight Rules vfr VFR
Wind360° at 03 kt
W.Decomp.*RWY 34: 2.8 kt HW 1.0 kt RCW
Visibility9000 m
Phenomena:N/A
Clouds:N/A
Expected CloudBase > 2,800 ft AGL from Temp-Dew spread
CeilingNone
Temp17°C (ISA +3)
Dew Point10°C (64% RH)
AAT16.0°C
QNH1025 hPa
Density Alt814 ft
Elevation659 ft
Report Wrong Elevation
Raw Report
METAR LFLY 201630Z AUTO 36003KT 9000 NSC 17/10 Q1025 NOSIG=

Extra information for LFLY:More info

Metar Taf Metar & Taf Last 4 Metars F.Rules Stats Wind Profile Meteogram Temp Stats Airport Information Weather charts Add Link Nearby VenuesMetar ALERT Operation Metar Decoded Social comments